Zanoni, Virginia
Current Conditions -  °F | °C
As of 10:15 AM on Friday 19 Dec 2014 (Local Time) from KW75 Reporting Station
Clear Clear  
Wind Chill: 32°   Ceiling: Unl
Heat Index: 38°   Visibility: 10mi
Dew Point: 25°   Wind: 9mph
Humidity: 59%   Direction: 340°NNW
Pressure: 30.18"   Gusts: NA
Location:  37.39°N, 76.49°W
Report Text: KW75 191515Z AUTO 34008KT 10SM CLR 04/M04 A3018 RMK AO1 T00361037
Loading
Personal Weather Stations






























Interactive Weather Map New forecast layout! Learn more

10-Day Weather Forecast

Advertisements
Track Severe Weather on mobile